Авиационная погода в Куопио

Регион: 
Погода METAR: 
EFKU 212250Z AUTO VRB01KT CAVOK 06/02 Q1014
Время наблюдения
2022-05-21T22:50:00Z
Температура C
6.0
Точка росы
2.0
Направление ветра
0
Скорость ветра (узлы)
1
Метео видимость
6.21
Облачность
CAVOK
Нижняя граница облачности (футы)
Явления погоды
Условия полета
VFR